Aérodrome :
LOGIN :

S'inscrire | Disclaimer

   EN    FR    IT 

 










Légende :    VFR   VFR Marginal   IFR   IFR Intensif   IFR Très Intensif
Visi : 
Plafond : 
>= 8 km
>= 3000ft
5 à 8 km
1000 à 3000 ft
1500m à 5 km
500 à 1000 ft
800 à 1500m
200 à 500 ft
< 800m
< 200 ft
Symboles :   Orages  Brouillard  Fortes neiges  Fortes précipitations  Vent > 20 kt
SIGMETs :   Divers  Orages  Givrage  Turbulence  Onde Orograph.  Cendres Volcan.






- Altitude de l'aérodrome : 125 ft
- Code IATA : MGL


EDLN - Mönchengladbach

DERNIER METAR :
  • 211050Z 26005KT 200V310 9999 BKN020 24/19 Q1009

METARs EXPIRÉS :
  • 211020Z 26006KT 210V300 CAVOK 23/19 Q1009
  • 210950Z 25004KT 180V300 9999 -RA FEW043 23/19 Q1008
  • 210920Z 24006KT 200V290 9999 FEW025 23/19 Q1008
  • 210850Z 19005KT 150V220 9999 FEW025 23/19 Q1008
  • 210820Z 21005KT 170V280 CAVOK 23/19 Q1008
  • 210750Z 22006KT 170V330 CAVOK 24/19 Q1007
  • 210720Z 20004KT 160V250 CAVOK 23/19 Q1007
  • 210650Z 23004KT 160V290 CAVOK 22/19 Q1007
  • 210620Z 19005KT 130V230 CAVOK 22/20 Q1007

TAF TAF EDLN
Valide du 21 à 09h jusqu'au 21 à 18h UTC


210800Z 2109/2118 26005KT 9999 SCT030
TEMPO 2109/2118 SHRA BKN030CB
PROB30
TEMPO 2109/2115 29013KT 4000 TSRA SCT012 BKN020CB



MET'MAP, la Météo Aéronautique d'un coup d'oeil ! - Copyright ORBIFLY Décembre 2007 - Disclaimer

ORBIFLY MET'MAP TEAM :

Programmation & Développement : Alexandra Zaïnal
Sur une idée originale de : Baudouin d'Aumeries
Soutien technique & logistique : Manuel Goepfert
Assistance : Marc-Olivier Méhu




SOURCES & CREDITS :

   NOAA